createdAt,value
2019-01-23T00:01:59.514Z,62.00
2019-01-23T00:04:00.861Z,71.28
2019-01-23T00:06:02.959Z,60.28
2019-01-23T00:08:04.420Z,59.88
2019-01-23T00:10:06.287Z,65.45
2019-01-23T00:12:07.765Z,82.72
2019-01-23T00:14:09.135Z,73.92
2019-01-23T00:16:10.498Z,65.85
2019-01-23T00:18:12.086Z,67.80
2019-01-23T00:20:13.440Z,68.95
2019-01-23T00:22:14.809Z,70.30
2019-01-23T00:24:16.398Z,76.70
2019-01-23T00:26:17.766Z,78.12
2019-01-23T00:28:19.123Z,70.57
2019-01-23T00:30:20.939Z,83.00
2019-01-23T00:32:22.311Z,66.87
2019-01-23T00:34:23.679Z,76.47
2019-01-23T00:36:25.270Z,67.67
2019-01-23T00:38:26.623Z,73.50
2019-01-23T00:40:28.040Z,69.82
2019-01-23T00:42:29.436Z,72.17
2019-01-23T00:44:30.798Z,85.65
2019-01-23T00:46:32.162Z,71.17
2019-01-23T00:48:33.743Z,71.40
2019-01-23T00:50:35.205Z,78.92
2019-01-23T00:52:36.569Z,69.58
2019-01-23T00:54:38.099Z,94.05
2019-01-23T00:56:39.562Z,91.05
2019-01-23T00:58:41.111Z,83.47
2019-01-23T01:00:42.517Z,71.80
2019-01-23T01:02:43.981Z,82.70
2019-01-23T01:04:45.347Z,78.07
2019-01-23T01:06:46.763Z,85.80
2019-01-23T01:08:48.130Z,79.35
2019-01-23T01:10:49.522Z,96.90
2019-01-23T01:12:50.882Z,71.80
2019-01-23T01:14:52.273Z,87.05
2019-01-23T01:16:54.030Z,78.02
2019-01-23T01:18:55.398Z,81.17
2019-01-23T01:20:56.752Z,86.60
2019-01-23T01:22:58.155Z,89.62
2019-01-23T01:24:59.509Z,77.75
2019-01-23T01:27:00.866Z,78.97
2019-01-23T01:29:02.259Z,82.70
2019-01-23T01:31:03.724Z,79.95
2019-01-23T01:33:05.129Z,82.62
2019-01-23T01:35:06.787Z,86.37
2019-01-23T01:37:08.186Z,83.65
2019-01-23T01:39:09.534Z,78.90
2019-01-23T01:41:10.896Z,86.95
2019-01-23T01:43:12.291Z,75.97
2019-01-23T01:45:15.581Z,75.05
2019-01-23T01:47:16.971Z,85.72
2019-01-23T01:49:18.398Z,83.67
2019-01-23T01:51:20.001Z,77.95
2019-01-23T01:53:21.369Z,72.95
2019-01-23T01:55:22.727Z,80.28
2019-01-23T01:57:24.220Z,84.72
2019-01-23T01:59:25.577Z,79.50
2019-01-23T02:01:26.975Z,80.62
2019-01-23T02:03:28.343Z,75.80
2019-01-23T02:05:29.702Z,78.97
2019-01-23T02:07:31.105Z,76.82
2019-01-23T02:09:35.514Z,85.60
2019-01-23T02:11:35.771Z,79.97
2019-01-23T02:13:37.137Z,66.95
2019-01-23T02:15:38.709Z,92.92
2019-01-23T02:17:40.066Z,93.50
2019-01-23T02:19:41.425Z,79.12
2019-01-23T02:21:42.850Z,70.83
2019-01-23T02:23:44.210Z,91.50
2019-01-23T02:25:45.605Z,71.02
2019-01-23T02:27:47.475Z,66.90
2019-01-23T02:29:48.836Z,72.32
2019-01-23T02:31:50.224Z,77.30
2019-01-23T02:33:51.583Z,69.65
2019-01-23T02:35:52.937Z,73.92
2019-01-23T02:37:54.339Z,64.22
2019-01-23T02:39:55.691Z,67.95
2019-01-23T02:41:57.065Z,72.87
2019-01-23T02:43:58.508Z,89.65
2019-01-23T02:46:00.166Z,74.85
2019-01-23T02:48:01.563Z,80.25
2019-01-23T02:50:07.418Z,83.00
2019-01-23T02:52:08.824Z,92.88
2019-01-23T02:54:10.184Z,75.72
2019-01-23T02:56:11.585Z,74.45
2019-01-23T02:58:12.947Z,86.72
2019-01-23T03:00:18.327Z,83.05
2019-01-23T03:02:19.722Z,66.17
2019-01-23T03:04:21.079Z,67.70
2019-01-23T03:06:22.438Z,88.55
2019-01-23T03:08:23.879Z,84.58
2019-01-23T03:10:25.309Z,73.47
2019-01-23T03:12:26.955Z,77.50
2019-01-23T03:14:28.403Z,73.85
2019-01-23T03:16:29.771Z,72.82
2019-01-23T03:18:31.185Z,67.20
2019-01-23T03:20:32.579Z,69.65
2019-01-23T03:22:33.933Z,71.00
2019-01-23T03:24:35.339Z,83.35
2019-01-23T03:26:36.737Z,79.22
2019-01-23T03:28:38.086Z,71.10
2019-01-23T03:30:39.504Z,84.10
2019-01-23T03:32:40.887Z,64.12
2019-01-23T03:34:42.326Z,82.90
2019-01-23T03:36:43.718Z,79.70
2019-01-23T03:38:45.068Z,60.43
2019-01-23T03:40:46.469Z,73.05
2019-01-23T03:42:47.855Z,63.48
2019-01-23T03:44:49.524Z,75.83
2019-01-23T03:46:50.898Z,77.45
2019-01-23T03:48:52.326Z,76.30
2019-01-23T03:50:53.761Z,85.72
2019-01-23T03:52:55.146Z,75.83
2019-01-23T03:54:56.529Z,70.40
2019-01-23T03:56:57.886Z,72.72
2019-01-23T03:58:59.222Z,67.67
2019-01-23T04:01:00.601Z,64.60
2019-01-23T04:03:01.954Z,62.40
2019-01-23T04:05:07.401Z,75.25
2019-01-23T04:07:08.790Z,82.12
2019-01-23T04:09:10.152Z,74.45
2019-01-23T04:11:11.497Z,64.07
2019-01-23T04:13:12.896Z,64.60
2019-01-23T04:15:15.845Z,69.00
2019-01-23T04:17:17.227Z,68.45
2019-01-23T04:19:18.629Z,78.83
2019-01-23T04:21:20.000Z,66.50
2019-01-23T04:23:21.368Z,58.58
2019-01-23T04:25:22.963Z,62.10
2019-01-23T04:27:24.307Z,75.28
2019-01-23T04:29:25.645Z,70.08
2019-01-23T04:31:27.234Z,70.08
2019-01-23T04:33:28.592Z,70.17
2019-01-23T04:35:29.935Z,68.25
2019-01-23T04:37:31.330Z,70.45
2019-01-23T04:39:32.686Z,65.55
2019-01-23T04:41:34.075Z,62.23
2019-01-23T04:43:35.459Z,70.85
2019-01-23T04:45:36.826Z,60.90
2019-01-23T04:47:38.225Z,65.08
2019-01-23T04:49:39.578Z,75.52
2019-01-23T04:51:42.855Z,59.73
2019-01-23T04:53:45.557Z,61.75
2019-01-23T04:55:46.893Z,86.05
2019-01-23T04:57:48.255Z,71.02
2019-01-23T04:59:49.659Z,58.48
2019-01-23T05:01:50.993Z,67.25
2019-01-23T05:03:52.350Z,67.55
2019-01-23T05:05:53.737Z,71.17
2019-01-23T05:08:10.209Z,78.42
2019-01-23T05:10:11.779Z,69.00
2019-01-23T05:12:13.193Z,72.37
2019-01-23T05:14:14.590Z,62.85
2019-01-23T05:16:15.942Z,75.85
2019-01-23T05:18:17.291Z,82.10
2019-01-23T05:20:18.673Z,71.12
2019-01-23T05:22:20.078Z,75.47
2019-01-23T05:24:21.420Z,75.00
2019-01-23T05:26:22.784Z,65.47
2019-01-23T05:28:24.159Z,65.70
2019-01-23T05:30:25.611Z,75.47
2019-01-23T05:32:27.003Z,75.55
2019-01-23T05:34:28.395Z,76.12
2019-01-23T05:36:29.754Z,70.52
2019-01-23T05:38:31.118Z,80.20
2019-01-23T05:40:32.514Z,59.27
2019-01-23T05:42:33.872Z,74.50
2019-01-23T05:44:35.266Z,71.62
2019-01-23T05:46:36.639Z,88.62
2019-01-23T05:48:37.984Z,85.45
2019-01-23T05:50:39.437Z,72.20
2019-01-23T05:52:40.898Z,75.08
2019-01-23T05:54:42.258Z,72.05
2019-01-23T05:56:43.686Z,69.60
2019-01-23T05:58:45.081Z,74.85
2019-01-23T06:00:47.449Z,68.15
2019-01-23T06:02:48.837Z,74.37
2019-01-23T06:04:50.172Z,71.05
2019-01-23T06:06:51.558Z,71.67
2019-01-23T06:08:52.929Z,76.55
2019-01-23T06:10:54.311Z,75.57
2019-01-23T06:12:55.661Z,70.78
2019-01-23T06:14:57.005Z,89.28
2019-01-23T06:16:58.569Z,77.87
2019-01-23T06:18:59.915Z,74.72
2019-01-23T06:21:01.259Z,75.37
2019-01-23T06:23:02.727Z,82.57
2019-01-23T06:25:05.073Z,79.97
2019-01-23T06:27:06.418Z,86.12
2019-01-23T06:29:07.901Z,60.05
2019-01-23T06:31:09.238Z,69.77
2019-01-23T06:33:10.605Z,86.95
2019-01-23T06:35:12.286Z,76.02
2019-01-23T06:37:13.627Z,63.90
2019-01-23T06:39:14.972Z,68.67
2019-01-23T06:41:16.378Z,81.22
2019-01-23T06:43:17.766Z,69.47
2019-01-23T06:45:19.150Z,87.12
2019-01-23T06:47:20.558Z,81.55
2019-01-23T06:49:21.915Z,80.10
2019-01-23T06:51:23.271Z,81.02
2019-01-23T06:53:24.860Z,80.17
2019-01-23T06:55:26.198Z,89.05
2019-01-23T06:57:27.563Z,73.50
2019-01-23T06:59:28.986Z,84.83
2019-01-23T07:01:30.351Z,90.17
2019-01-23T07:03:31.695Z,75.83
2019-01-23T07:05:33.106Z,70.95
2019-01-23T07:07:34.487Z,89.77
2019-01-23T07:09:35.857Z,77.58
2019-01-23T07:11:37.586Z,100.80
2019-01-23T07:13:39.001Z,83.30
2019-01-23T07:15:40.403Z,93.95
2019-01-23T07:17:41.955Z,87.70
2019-01-23T07:19:43.309Z,69.85
2019-01-23T07:21:44.676Z,84.65
2019-01-23T07:23:46.129Z,87.02
2019-01-23T07:25:47.491Z,85.03
2019-01-23T07:27:48.853Z,89.20
2019-01-23T07:29:50.263Z,96.25
2019-01-23T07:31:51.627Z,91.95
2019-01-23T07:33:52.992Z,97.57
2019-01-23T07:35:54.383Z,90.32
2019-01-23T07:37:55.739Z,95.10
2019-01-23T07:39:57.089Z,89.67
2019-01-23T07:41:58.515Z,92.90
2019-01-23T07:43:59.875Z,100.62
2019-01-23T07:46:01.560Z,99.67
2019-01-23T07:48:03.267Z,88.62
2019-01-23T07:50:09.022Z,87.33
2019-01-23T07:52:10.369Z,103.55
2019-01-23T07:54:11.775Z,98.03
2019-01-23T07:56:13.136Z,77.05
2019-01-23T07:58:14.535Z,93.15
2019-01-23T08:00:20.196Z,96.63
2019-01-23T08:02:21.549Z,101.12
2019-01-23T08:04:22.949Z,99.60
2019-01-23T08:06:24.327Z,104.85
2019-01-23T08:08:25.695Z,93.97
2019-01-23T08:10:27.111Z,104.17
2019-01-23T08:12:28.789Z,82.02
2019-01-23T08:14:30.132Z,95.95
2019-01-23T08:16:31.535Z,109.45
2019-01-23T08:18:32.905Z,95.45
2019-01-23T08:20:34.385Z,101.60
2019-01-23T08:22:35.928Z,94.05
2019-01-23T08:24:37.339Z,88.15
2019-01-23T08:26:39.210Z,102.55
2019-01-23T08:28:40.811Z,118.42
2019-01-23T08:30:42.153Z,102.45
2019-01-23T08:32:43.622Z,111.05
2019-01-23T08:34:45.206Z,119.67
2019-01-23T08:36:46.557Z,98.33
2019-01-23T08:38:47.899Z,131.47
2019-01-23T08:40:49.311Z,100.82
2019-01-23T08:42:50.659Z,102.87
2019-01-23T08:44:52.004Z,131.27
2019-01-23T08:46:53.408Z,106.63
2019-01-23T08:48:54.772Z,118.42
2019-01-23T08:50:56.129Z,113.57
2019-01-23T08:52:57.520Z,119.30
2019-01-23T08:54:58.878Z,122.85
2019-01-23T08:57:00.413Z,106.50
2019-01-23T08:59:01.853Z,105.12
2019-01-23T09:01:03.299Z,132.57
2019-01-23T09:03:04.699Z,121.77
2019-01-23T09:05:08.563Z,108.65
2019-01-23T09:07:09.905Z,113.97
2019-01-23T09:09:11.333Z,127.35
2019-01-23T09:11:12.690Z,138.03
2019-01-23T09:13:14.554Z,130.85
2019-01-23T09:15:16.474Z,112.17
2019-01-23T09:17:17.819Z,130.43
2019-01-23T09:19:19.164Z,120.90
2019-01-23T09:21:20.584Z,113.55
2019-01-23T09:23:21.926Z,131.93
2019-01-23T09:25:25.832Z,115.40
2019-01-23T09:27:27.315Z,122.10
2019-01-23T09:29:28.649Z,105.27
2019-01-23T09:31:35.726Z,131.85
2019-01-23T09:33:43.020Z,127.75
2019-01-23T09:35:53.290Z,113.85
2019-01-23T09:38:06.101Z,127.17
2019-01-23T09:40:25.618Z,105.55
2019-01-23T09:42:47.281Z,134.78
2019-01-23T09:45:14.230Z,133.67
2019-01-23T09:47:29.682Z,124.95
2019-01-23T09:49:36.734Z,127.70
2019-01-23T09:52:12.882Z,133.65
2019-01-23T09:54:14.322Z,117.30
2019-01-23T09:56:15.688Z,134.80
2019-01-23T09:58:17.104Z,136.28
2019-01-23T10:00:23.193Z,140.03
2019-01-23T10:02:24.553Z,138.55
2019-01-23T10:04:26.098Z,134.85
2019-01-23T10:06:27.467Z,123.87
2019-01-23T10:08:28.842Z,147.05
2019-01-23T10:10:30.218Z,139.15
2019-01-23T10:12:31.558Z,109.72
2019-01-23T10:14:32.924Z,142.20
2019-01-23T10:16:34.778Z,136.75
2019-01-23T10:18:36.135Z,125.80
2019-01-23T10:20:37.490Z,121.60
2019-01-23T10:22:39.016Z,143.28
2019-01-23T10:24:40.440Z,136.05
2019-01-23T10:26:41.843Z,134.47
2019-01-23T10:28:43.252Z,136.77
2019-01-23T10:30:44.605Z,144.07
2019-01-23T10:32:45.948Z,127.38
2019-01-23T10:34:47.364Z,131.05
2019-01-23T10:36:50.293Z,134.10
2019-01-23T10:38:51.659Z,145.28
2019-01-23T10:40:53.053Z,149.68
2019-01-23T10:42:54.410Z,146.80
2019-01-23T10:44:56.049Z,138.10
2019-01-23T10:46:57.457Z,138.20
2019-01-23T10:48:58.826Z,132.18
2019-01-23T10:51:00.225Z,115.47
2019-01-23T10:53:01.569Z,152.53
2019-01-23T10:55:05.320Z,149.57
2019-01-23T10:57:06.822Z,127.32
2019-01-23T10:59:08.176Z,146.25
2019-01-23T11:01:13.325Z,139.65
2019-01-23T11:03:12.867Z,136.70
2019-01-23T11:05:18.334Z,125.45
2019-01-23T11:07:19.780Z,131.78
2019-01-23T11:09:21.281Z,125.82
2019-01-23T11:11:22.635Z,149.23
2019-01-23T11:13:23.973Z,143.55
2019-01-23T11:15:26.317Z,153.27
2019-01-23T11:17:27.811Z,162.37
2019-01-23T11:19:29.239Z,158.97
2019-01-23T11:21:30.976Z,150.00
2019-01-23T11:23:32.421Z,135.43
2019-01-23T11:25:35.687Z,144.37
2019-01-23T11:27:37.251Z,156.63
2019-01-23T11:29:38.797Z,128.00
2019-01-23T11:31:40.283Z,145.90
2019-01-23T11:33:41.645Z,136.37
2019-01-23T11:35:43.087Z,137.07
2019-01-23T11:37:44.990Z,153.65
2019-01-23T11:39:46.343Z,135.70
2019-01-23T11:41:47.697Z,135.03
2019-01-23T11:43:51.009Z,164.93
2019-01-23T11:45:52.365Z,149.23
2019-01-23T11:47:53.833Z,167.82
2019-01-23T11:49:55.244Z,135.15
2019-01-23T11:51:56.626Z,166.28
2019-01-23T11:53:57.985Z,146.50
2019-01-23T11:55:59.766Z,158.80
2019-01-23T11:58:01.130Z,133.15
2019-01-23T12:00:15.998Z,155.05
2019-01-23T12:02:17.404Z,149.18
2019-01-23T12:04:18.753Z,157.65
2019-01-23T12:06:20.163Z,165.25
2019-01-23T12:08:21.651Z,147.85
2019-01-23T12:10:23.505Z,138.88
2019-01-23T12:12:24.900Z,144.87
2019-01-23T12:14:26.247Z,158.25
2019-01-23T12:16:27.668Z,132.55
2019-01-23T12:18:29.052Z,145.15
2019-01-23T12:20:30.616Z,157.72
2019-01-23T12:22:31.976Z,174.57
2019-01-23T12:24:33.322Z,147.35
2019-01-23T12:26:34.716Z,145.30
2019-01-23T12:28:36.118Z,174.35
2019-01-23T12:30:37.563Z,146.15
2019-01-23T12:32:38.980Z,148.13
2019-01-23T12:34:40.418Z,146.93
2019-01-23T12:36:41.804Z,124.22
2019-01-23T12:38:43.149Z,136.97
2019-01-23T12:40:44.501Z,171.77
2019-01-23T12:42:46.168Z,145.87
2019-01-23T12:44:47.525Z,140.90
2019-01-23T12:46:48.901Z,150.85
2019-01-23T12:48:50.295Z,149.82
2019-01-23T12:50:51.744Z,131.80
2019-01-23T12:52:53.196Z,147.85
2019-01-23T12:54:54.612Z,148.25
2019-01-23T12:56:55.972Z,145.17
2019-01-23T12:58:57.327Z,156.72
2019-01-23T13:00:58.764Z,151.55
2019-01-23T13:03:00.230Z,153.15
2019-01-23T13:05:01.692Z,151.53
2019-01-23T13:07:03.520Z,154.85
2019-01-23T13:09:06.383Z,144.32
2019-01-23T13:11:07.745Z,158.45
2019-01-23T13:13:09.263Z,162.40
2019-01-23T13:15:17.793Z,154.55
2019-01-23T13:17:20.468Z,153.30
2019-01-23T13:19:22.254Z,154.38
2019-01-23T13:21:23.920Z,153.15
2019-01-23T13:23:25.279Z,169.50
2019-01-23T13:25:28.481Z,155.43
2019-01-23T13:27:50.033Z,152.57
2019-01-23T13:30:33.139Z,154.00
2019-01-23T13:32:54.479Z,143.55
2019-01-23T13:35:38.762Z,149.38
2019-01-23T13:38:00.417Z,142.00
2019-01-23T13:40:43.479Z,138.80
2019-01-23T13:43:05.659Z,153.70
2019-01-23T13:45:26.911Z,147.25
2019-01-23T13:47:48.422Z,161.77
2019-01-23T13:53:13.330Z,142.72
2019-01-23T13:55:34.593Z,138.35
2019-01-23T13:57:55.851Z,140.45
2019-01-23T14:00:38.035Z,149.65
2019-01-23T14:02:59.421Z,141.05
2019-01-23T14:05:20.742Z,146.30
2019-01-23T14:07:42.062Z,138.45
2019-01-23T14:10:25.081Z,142.05
2019-01-23T14:12:46.485Z,131.40
2019-01-23T14:17:00.619Z,139.77
2019-01-23T14:19:16.016Z,139.82
2019-01-23T14:21:37.272Z,131.35
2019-01-23T14:23:58.521Z,150.65
2019-01-23T14:26:19.870Z,131.80
2019-01-23T14:28:41.132Z,130.03
2019-01-23T14:31:02.478Z,117.08
2019-01-23T14:33:24.067Z,113.32
2019-01-23T14:35:45.326Z,119.25
2019-01-23T14:38:06.888Z,142.47
2019-01-23T14:40:28.596Z,119.67
2019-01-23T14:42:49.864Z,129.60
2019-01-23T14:45:32.931Z,113.30
2019-01-23T14:47:54.261Z,120.65
2019-01-23T14:50:35.394Z,118.57
2019-01-23T14:52:56.981Z,103.90
2019-01-23T14:55:18.265Z,87.40
2019-01-23T14:57:40.194Z,98.62
2019-01-23T15:00:01.753Z,107.12
2019-01-23T15:02:23.073Z,88.22
2019-01-23T15:04:44.319Z,88.00
2019-01-23T15:07:05.633Z,85.75
2019-01-23T15:09:26.960Z,74.85
2019-01-23T15:11:48.205Z,70.78
2019-01-23T15:14:09.478Z,87.57
2019-01-23T15:16:30.944Z,73.17
2019-01-23T15:18:52.188Z,72.58
2019-01-23T15:21:07.156Z,66.25
2019-01-23T15:23:28.492Z,79.25
2019-01-23T15:25:49.755Z,68.02
2019-01-23T15:28:11.080Z,61.73
2019-01-23T15:30:32.535Z,57.13
2019-01-23T15:32:53.791Z,82.57
2019-01-23T15:35:15.823Z,62.60
2019-01-23T15:37:37.189Z,60.70
2019-01-23T15:39:58.439Z,60.35
2019-01-23T15:42:19.768Z,61.63
2019-01-23T15:44:41.011Z,58.87
2019-01-23T15:47:02.460Z,65.35
2019-01-23T15:49:03.977Z,55.55
2019-01-23T15:51:25.248Z,45.03
2019-01-23T15:53:46.490Z,52.85
2019-01-23T15:56:07.813Z,58.55
2019-01-23T15:58:29.067Z,53.58
2019-01-23T16:00:50.639Z,50.90
2019-01-23T16:03:11.949Z,41.60
2019-01-23T16:05:33.209Z,51.88
2019-01-23T16:07:54.461Z,56.83
2019-01-23T16:10:37.793Z,45.17
2019-01-23T16:12:59.057Z,52.53
2019-01-23T16:18:30.298Z,55.38
2019-01-23T16:20:51.560Z,56.50
2019-01-23T16:23:06.401Z,67.20
2019-01-23T16:25:27.786Z,57.38
2019-01-23T16:27:49.057Z,58.15
2019-01-23T16:30:32.158Z,48.13
2019-01-23T16:32:53.418Z,53.98
2019-01-23T16:35:14.759Z,52.23
2019-01-23T16:37:36.196Z,65.80
2019-01-23T16:39:57.453Z,64.30
2019-01-23T16:42:18.710Z,48.05
2019-01-23T16:44:40.035Z,58.60
2019-01-23T16:47:01.304Z,52.53
2019-01-23T16:49:22.565Z,62.00
2019-01-23T16:51:43.939Z,57.25
2019-01-23T16:54:05.238Z,52.15
2019-01-23T16:56:26.503Z,46.00
2019-01-23T16:58:47.899Z,51.08
2019-01-23T17:01:09.244Z,50.15
2019-01-23T17:03:30.509Z,56.13
2019-01-23T17:05:51.936Z,48.00
2019-01-23T17:08:13.178Z,44.00
2019-01-23T17:10:34.536Z,60.48
2019-01-23T17:12:56.256Z,47.98
2019-01-23T17:15:17.516Z,51.33
2019-01-23T17:17:38.849Z,50.85
2019-01-23T17:20:00.332Z,46.28
2019-01-23T17:22:21.591Z,45.85
2019-01-23T17:24:36.853Z,44.90
2019-01-23T17:26:58.492Z,46.13
2019-01-23T17:29:19.779Z,42.78
2019-01-23T17:31:41.067Z,47.65
2019-01-23T17:34:02.573Z,51.18
2019-01-23T17:36:23.833Z,38.67
2019-01-23T17:38:45.225Z,40.03
2019-01-23T17:40:46.827Z,41.77
2019-01-23T17:43:08.664Z,44.23
2019-01-23T17:45:49.845Z,52.75
2019-01-23T17:48:11.423Z,41.35
2019-01-23T17:50:32.725Z,37.58
2019-01-23T17:52:54.078Z,41.75
2019-01-23T17:55:37.390Z,34.98
2019-01-23T17:57:58.735Z,33.13
2019-01-23T18:03:30.550Z,38.98
2019-01-23T18:05:31.948Z,34.88
2019-01-23T18:07:53.271Z,29.80
2019-01-23T18:10:14.929Z,36.75
2019-01-23T18:12:36.191Z,33.00
2019-01-23T18:14:57.502Z,45.38
2019-01-23T18:17:18.741Z,34.65
2019-01-23T18:19:40.020Z,38.45
2019-01-23T18:22:01.451Z,31.75
2019-01-23T18:24:22.773Z,45.48
2019-01-23T18:26:37.669Z,30.68
2019-01-23T18:28:59.068Z,31.60
2019-01-23T18:31:42.086Z,32.03
2019-01-23T18:34:25.197Z,29.25
2019-01-23T18:37:08.201Z,32.85
2019-01-23T18:40:09.292Z,34.50
2019-01-23T18:43:10.308Z,35.28
2019-01-23T18:45:53.418Z,31.37
2019-01-23T18:48:36.491Z,38.02
2019-01-23T18:51:18.901Z,35.58
2019-01-23T18:53:40.509Z,36.20
2019-01-23T18:55:55.117Z,43.38
2019-01-23T18:58:16.414Z,34.58
2019-01-23T19:00:37.749Z,41.63
2019-01-23T19:02:57.619Z,37.95
2019-01-23T19:04:59.167Z,32.03
2019-01-23T19:07:00.606Z,42.05
2019-01-23T19:09:05.732Z,43.00
2019-01-23T19:11:07.081Z,41.13
2019-01-23T19:13:08.443Z,33.35
2019-01-23T19:15:15.134Z,34.35
2019-01-23T19:17:16.473Z,40.15
2019-01-23T19:19:17.843Z,33.23
2019-01-23T19:21:19.257Z,46.20
2019-01-23T19:23:20.696Z,41.30
2019-01-23T19:25:22.028Z,35.20
2019-01-23T19:27:23.384Z,39.98
2019-01-23T19:29:25.226Z,40.38
2019-01-23T19:31:26.563Z,40.80
2019-01-23T19:33:27.988Z,28.35
2019-01-23T19:35:29.462Z,31.25
2019-01-23T19:37:31.034Z,41.73
2019-01-23T19:39:32.616Z,39.03
2019-01-23T19:41:34.157Z,48.60
2019-01-23T19:43:35.558Z,34.53
2019-01-23T19:45:37.203Z,31.57
2019-01-23T19:47:39.026Z,41.58
2019-01-23T19:49:40.636Z,38.85
2019-01-23T19:51:42.231Z,41.58
2019-01-23T19:53:44.038Z,41.05
2019-01-23T19:55:45.862Z,36.53
2019-01-23T19:57:47.791Z,38.88
2019-01-23T19:59:49.792Z,39.08
2019-01-23T20:01:51.281Z,35.33
2019-01-23T20:03:52.918Z,38.42
2019-01-23T20:05:54.358Z,42.48
2019-01-23T20:07:55.748Z,38.73
2019-01-23T20:09:57.171Z,40.17
2019-01-23T20:11:58.515Z,41.83
2019-01-23T20:13:59.861Z,39.35
2019-01-23T20:16:01.372Z,40.60
2019-01-23T20:18:03.575Z,37.80
2019-01-23T20:20:10.109Z,41.80
2019-01-23T20:22:11.470Z,38.13
2019-01-23T20:24:12.834Z,40.28
2019-01-23T20:26:14.221Z,39.50
2019-01-23T20:28:15.578Z,38.20
2019-01-23T20:30:25.235Z,37.98
2019-01-23T20:32:26.656Z,37.73
2019-01-23T20:34:28.025Z,37.63
2019-01-23T20:36:29.408Z,35.15
2019-01-23T20:38:31.096Z,47.58
2019-01-23T20:40:32.815Z,40.63
2019-01-23T20:42:34.195Z,42.10
2019-01-23T20:44:35.605Z,37.50
2019-01-23T20:46:36.996Z,45.38
2019-01-23T20:48:38.380Z,40.45
2019-01-23T20:50:39.783Z,51.05
2019-01-23T20:52:41.290Z,35.50
2019-01-23T20:54:42.718Z,47.08
2019-01-23T20:56:44.067Z,47.33
2019-01-23T20:58:45.452Z,41.95
2019-01-23T21:00:47.083Z,51.15
2019-01-23T21:02:48.447Z,42.55
2019-01-23T21:04:49.826Z,42.80
2019-01-23T21:06:51.244Z,41.08
2019-01-23T21:08:52.616Z,40.38
2019-01-23T21:10:53.971Z,43.60
2019-01-23T21:12:55.391Z,43.98
2019-01-23T21:14:56.804Z,41.50
2019-01-23T21:16:58.177Z,43.98
2019-01-23T21:18:59.600Z,41.13
2019-01-23T21:21:00.964Z,41.28
2019-01-23T21:23:02.864Z,46.50
2019-01-23T21:25:07.435Z,41.73
2019-01-23T21:27:08.806Z,47.15
2019-01-23T21:29:10.212Z,43.45
2019-01-23T21:31:11.563Z,41.68
2019-01-23T21:33:12.918Z,39.78
2019-01-23T21:35:15.028Z,41.77
2019-01-23T21:37:16.366Z,40.85
2019-01-23T21:39:17.730Z,49.70
2019-01-23T21:41:19.224Z,43.05
2019-01-23T21:43:20.640Z,45.55
2019-01-23T21:45:22.032Z,44.15
2019-01-23T21:47:23.599Z,42.08
2019-01-23T21:49:24.939Z,35.50
2019-01-23T21:51:26.452Z,43.10
2019-01-23T21:53:27.809Z,37.42
2019-01-23T21:55:29.256Z,40.50
2019-01-23T21:57:30.668Z,39.25
2019-01-23T21:59:32.214Z,34.65
2019-01-23T22:01:33.571Z,36.63
2019-01-23T22:03:34.920Z,44.35
2019-01-23T22:05:36.517Z,41.83
2019-01-23T22:07:37.872Z,42.05
2019-01-23T22:09:39.208Z,37.90
2019-01-23T22:11:43.726Z,45.70
2019-01-23T22:13:43.954Z,36.42
2019-01-23T22:15:45.312Z,33.20
2019-01-23T22:17:46.654Z,38.58
2019-01-23T22:19:49.123Z,40.40
2019-01-23T22:21:50.461Z,38.42
2019-01-23T22:23:51.817Z,38.45
2019-01-23T22:25:54.362Z,32.35
2019-01-23T22:27:55.930Z,36.60
2019-01-23T22:29:57.276Z,40.70
2019-01-23T22:32:00.531Z,36.73
2019-01-23T22:34:01.980Z,33.02
2019-01-23T22:36:03.442Z,37.13
2019-01-23T22:38:05.193Z,40.10
2019-01-23T22:40:16.551Z,32.53
2019-01-23T22:42:17.913Z,29.82
2019-01-23T22:44:19.259Z,36.10
2019-01-23T22:46:22.567Z,36.20
2019-01-23T22:48:23.905Z,32.67
2019-01-23T22:50:26.372Z,30.30
2019-01-23T22:52:27.786Z,40.38
2019-01-23T22:54:29.148Z,40.70
2019-01-23T22:56:30.511Z,39.35
2019-01-23T22:58:32.237Z,43.38
2019-01-23T23:00:40.136Z,38.38
2019-01-23T23:02:41.495Z,31.55
2019-01-23T23:04:42.893Z,34.80
2019-01-23T23:06:44.251Z,35.13
2019-01-23T23:08:45.611Z,29.45
2019-01-23T23:10:47.023Z,36.98
2019-01-23T23:12:48.370Z,32.00
2019-01-23T23:14:49.809Z,32.83
2019-01-23T23:16:52.244Z,36.05
2019-01-23T23:18:53.578Z,31.00
2019-01-23T23:20:54.920Z,40.67
2019-01-23T23:22:56.330Z,34.53
2019-01-23T23:24:57.686Z,37.17
2019-01-23T23:26:59.050Z,29.92
2019-01-23T23:29:00.552Z,26.55
2019-01-23T23:31:02.131Z,39.03
2019-01-23T23:33:03.825Z,31.07
2019-01-23T23:35:06.050Z,34.30
2019-01-23T23:37:07.469Z,31.85
2019-01-23T23:39:08.803Z,34.20
2019-01-23T23:41:10.165Z,30.52
2019-01-23T23:43:11.683Z,32.88
2019-01-23T23:45:16.618Z,34.88
2019-01-23T23:47:17.983Z,33.33
2019-01-23T23:49:19.422Z,35.55
2019-01-23T23:51:20.780Z,35.15
2019-01-23T23:53:22.135Z,37.88
2019-01-23T23:55:23.546Z,26.97
2019-01-23T23:57:25.969Z,29.32
2019-01-23T23:59:28.364Z,29.45
